sensor_id;sensor_type;location;lat;lon;timestamp;temperature;humidity
25871;DHT22;13689;48.590;7.752;2022-12-13T00:00:36;-0.90;83.50
25871;DHT22;13689;48.590;7.752;2022-12-13T00:03:01;-0.90;83.60
25871;DHT22;13689;48.590;7.752;2022-12-13T00:05:27;-0.90;83.60
25871;DHT22;13689;48.590;7.752;2022-12-13T00:07:52;-0.90;83.60
25871;DHT22;13689;48.590;7.752;2022-12-13T00:10:18;-0.90;83.50
25871;DHT22;13689;48.590;7.752;2022-12-13T00:12:43;-0.90;83.60
25871;DHT22;13689;48.590;7.752;2022-12-13T00:15:09;-0.90;83.60
25871;DHT22;13689;48.590;7.752;2022-12-13T00:17:35;-0.90;83.50
25871;DHT22;13689;48.590;7.752;2022-12-13T00:20:00;-0.90;83.50
25871;DHT22;13689;48.590;7.752;2022-12-13T00:22:26;-0.80;83.50
25871;DHT22;13689;48.590;7.752;2022-12-13T00:24:54;-0.90;83.60
25871;DHT22;13689;48.590;7.752;2022-12-13T00:27:23;-0.90;83.70
25871;DHT22;13689;48.590;7.752;2022-12-13T00:29:49;-0.90;83.70
25871;DHT22;13689;48.590;7.752;2022-12-13T00:32:15;-0.90;83.80
25871;DHT22;13689;48.590;7.752;2022-12-13T00:34:41;-0.90;83.80
25871;DHT22;13689;48.590;7.752;2022-12-13T00:37:06;-0.90;83.80
25871;DHT22;13689;48.590;7.752;2022-12-13T00:39:32;-0.90;83.80
25871;DHT22;13689;48.590;7.752;2022-12-13T00:41:57;-0.90;83.80
25871;DHT22;13689;48.590;7.752;2022-12-13T00:44:22;-0.90;83.70
25871;DHT22;13689;48.590;7.752;2022-12-13T00:46:48;-0.90;83.50
25871;DHT22;13689;48.590;7.752;2022-12-13T00:49:15;-1.00;83.70
25871;DHT22;13689;48.590;7.752;2022-12-13T00:51:41;-1.00;84.00
25871;DHT22;13689;48.590;7.752;2022-12-13T00:54:07;-1.00;84.10
25871;DHT22;13689;48.590;7.752;2022-12-13T00:56:35;-1.00;84.00
25871;DHT22;13689;48.590;7.752;2022-12-13T00:59:01;-1.00;84.10
25871;DHT22;13689;48.590;7.752;2022-12-13T01:01:30;-1.00;84.10
25871;DHT22;13689;48.590;7.752;2022-12-13T01:03:57;-1.10;84.20
25871;DHT22;13689;48.590;7.752;2022-12-13T01:06:28;-1.30;83.50
25871;DHT22;13689;48.590;7.752;2022-12-13T01:08:54;-1.40;84.20
25871;DHT22;13689;48.590;7.752;2022-12-13T01:11:19;-1.30;84.80
25871;DHT22;13689;48.590;7.752;2022-12-13T01:13:45;-1.30;84.50
25871;DHT22;13689;48.590;7.752;2022-12-13T01:16:11;-1.30;84.40
25871;DHT22;13689;48.590;7.752;2022-12-13T01:18:37;-1.20;84.60
25871;DHT22;13689;48.590;7.752;2022-12-13T01:21:09;-1.30;84.30
25871;DHT22;13689;48.590;7.752;2022-12-13T01:23:36;-1.30;84.70
25871;DHT22;13689;48.590;7.752;2022-12-13T01:26:03;-1.20;84.80
25871;DHT22;13689;48.590;7.752;2022-12-13T01:28:28;-1.20;84.80
25871;DHT22;13689;48.590;7.752;2022-12-13T01:30:58;-1.20;84.60
25871;DHT22;13689;48.590;7.752;2022-12-13T01:33:24;-1.20;84.70
25871;DHT22;13689;48.590;7.752;2022-12-13T01:35:49;-1.20;84.70
25871;DHT22;13689;48.590;7.752;2022-12-13T01:38:15;-1.20;84.70
25871;DHT22;13689;48.590;7.752;2022-12-13T01:40:45;-1.20;84.60
25871;DHT22;13689;48.590;7.752;2022-12-13T01:43:14;-1.20;85.50
25871;DHT22;13689;48.590;7.752;2022-12-13T01:45:40;-1.20;84.70
25871;DHT22;13689;48.590;7.752;2022-12-13T01:48:06;-1.30;84.40
25871;DHT22;13689;48.590;7.752;2022-12-13T01:50:36;-1.30;84.30
25871;DHT22;13689;48.590;7.752;2022-12-13T01:53:04;-1.40;84.60
25871;DHT22;13689;48.590;7.752;2022-12-13T01:55:31;-1.40;84.80
25871;DHT22;13689;48.590;7.752;2022-12-13T01:57:58;-1.40;84.90
25871;DHT22;13689;48.590;7.752;2022-12-13T02:00:25;-1.40;84.80
25871;DHT22;13689;48.590;7.752;2022-12-13T02:02:51;-1.50;84.70
25871;DHT22;13689;48.590;7.752;2022-12-13T02:07:49;-1.50;84.90
25871;DHT22;13689;48.590;7.752;2022-12-13T02:10:15;-1.60;84.80
25871;DHT22;13689;48.590;7.752;2022-12-13T02:12:41;-1.60;84.80
25871;DHT22;13689;48.590;7.752;2022-12-13T02:15:11;-1.60;84.80
25871;DHT22;13689;48.590;7.752;2022-12-13T02:17:46;-1.70;84.90
25871;DHT22;13689;48.590;7.752;2022-12-13T02:27:44;-1.80;85.70
25871;DHT22;13689;48.590;7.752;2022-12-13T02:32:48;-1.80;85.10
25871;DHT22;13689;48.590;7.752;2022-12-13T02:35:19;-1.80;85.10
25871;DHT22;13689;48.590;7.752;2022-12-13T02:45:29;-2.00;85.10
25871;DHT22;13689;48.590;7.752;2022-12-13T02:47:55;-2.00;85.20
25871;DHT22;13689;48.590;7.752;2022-12-13T02:50:22;-1.90;85.30
25871;DHT22;13689;48.590;7.752;2022-12-13T02:52:49;-1.90;85.30
25871;DHT22;13689;48.590;7.752;2022-12-13T02:55:15;-1.90;85.00
25871;DHT22;13689;48.590;7.752;2022-12-13T02:57:42;-2.00;85.00
25871;DHT22;13689;48.590;7.752;2022-12-13T03:00:08;-2.00;85.40
25871;DHT22;13689;48.590;7.752;2022-12-13T03:02:42;-2.00;85.30
25871;DHT22;13689;48.590;7.752;2022-12-13T03:10:55;-1.90;85.10
25871;DHT22;13689;48.590;7.752;2022-12-13T03:13:25;-2.00;85.00
25871;DHT22;13689;48.590;7.752;2022-12-13T03:16:03;-2.00;85.20
25871;DHT22;13689;48.590;7.752;2022-12-13T03:18:29;-2.00;85.20
25871;DHT22;13689;48.590;7.752;2022-12-13T03:21:01;-1.90;85.20
25871;DHT22;13689;48.590;7.752;2022-12-13T03:23:28;-1.90;85.20
25871;DHT22;13689;48.590;7.752;2022-12-13T03:25:54;-1.90;85.00
25871;DHT22;13689;48.590;7.752;2022-12-13T03:28:21;-2.00;84.60
25871;DHT22;13689;48.590;7.752;2022-12-13T03:30:46;-2.00;85.10
25871;DHT22;13689;48.590;7.752;2022-12-13T03:33:12;-2.00;85.30
25871;DHT22;13689;48.590;7.752;2022-12-13T03:35:38;-2.00;85.10
25871;DHT22;13689;48.590;7.752;2022-12-13T03:38:04;-2.10;84.90
25871;DHT22;13689;48.590;7.752;2022-12-13T03:40:30;-2.10;85.10
25871;DHT22;13689;48.590;7.752;2022-12-13T03:42:56;-2.10;85.10
25871;DHT22;13689;48.590;7.752;2022-12-13T03:45:21;-2.10;85.10
25871;DHT22;13689;48.590;7.752;2022-12-13T03:47:47;-2.10;85.10
25871;DHT22;13689;48.590;7.752;2022-12-13T03:50:12;-2.00;85.10
25871;DHT22;13689;48.590;7.752;2022-12-13T03:52:38;-2.00;85.10
25871;DHT22;13689;48.590;7.752;2022-12-13T03:55:03;-2.00;85.00
25871;DHT22;13689;48.590;7.752;2022-12-13T03:57:29;-1.90;85.00
25871;DHT22;13689;48.590;7.752;2022-12-13T03:59:55;-2.00;84.90
25871;DHT22;13689;48.590;7.752;2022-12-13T04:02:20;-2.00;84.80
25871;DHT22;13689;48.590;7.752;2022-12-13T04:04:46;-2.00;84.80
25871;DHT22;13689;48.590;7.752;2022-12-13T04:07:11;-1.90;84.90
25871;DHT22;13689;48.590;7.752;2022-12-13T04:09:37;-2.00;84.80
25871;DHT22;13689;48.590;7.752;2022-12-13T04:12:02;-2.00;84.70
25871;DHT22;13689;48.590;7.752;2022-12-13T04:14:51;-2.00;84.70
25871;DHT22;13689;48.590;7.752;2022-12-13T04:17:16;-2.00;84.80
25871;DHT22;13689;48.590;7.752;2022-12-13T04:19:42;-2.00;84.80
25871;DHT22;13689;48.590;7.752;2022-12-13T04:22:07;-2.00;84.70
25871;DHT22;13689;48.590;7.752;2022-12-13T04:24:33;-2.10;84.60
25871;DHT22;13689;48.590;7.752;2022-12-13T04:26:59;-2.10;84.60
25871;DHT22;13689;48.590;7.752;2022-12-13T04:29:25;-2.10;84.60
25871;DHT22;13689;48.590;7.752;2022-12-13T04:31:51;-2.10;84.70
25871;DHT22;13689;48.590;7.752;2022-12-13T04:34:16;-2.10;84.70
25871;DHT22;13689;48.590;7.752;2022-12-13T04:36:42;-2.10;84.60
25871;DHT22;13689;48.590;7.752;2022-12-13T04:39:07;-2.20;84.60
25871;DHT22;13689;48.590;7.752;2022-12-13T04:41:36;-2.20;84.70
25871;DHT22;13689;48.590;7.752;2022-12-13T04:44:02;-2.30;84.60
25871;DHT22;13689;48.590;7.752;2022-12-13T04:46:28;-2.20;84.80
25871;DHT22;13689;48.590;7.752;2022-12-13T04:48:54;-2.30;84.90
25871;DHT22;13689;48.590;7.752;2022-12-13T04:51:19;-2.20;84.90
25871;DHT22;13689;48.590;7.752;2022-12-13T04:53:44;-2.30;84.70
25871;DHT22;13689;48.590;7.752;2022-12-13T04:56:10;-2.30;85.60
25871;DHT22;13689;48.590;7.752;2022-12-13T04:58:35;-2.20;84.80
25871;DHT22;13689;48.590;7.752;2022-12-13T05:01:01;-2.20;84.80
25871;DHT22;13689;48.590;7.752;2022-12-13T05:03:26;-2.30;84.80
25871;DHT22;13689;48.590;7.752;2022-12-13T05:05:52;-2.30;84.60
25871;DHT22;13689;48.590;7.752;2022-12-13T05:08:18;-2.30;84.60
25871;DHT22;13689;48.590;7.752;2022-12-13T05:10:43;-2.30;84.60
25871;DHT22;13689;48.590;7.752;2022-12-13T05:13:09;-2.30;84.80
25871;DHT22;13689;48.590;7.752;2022-12-13T05:15:34;-2.30;84.80
25871;DHT22;13689;48.590;7.752;2022-12-13T05:18:00;-2.40;84.70
25871;DHT22;13689;48.590;7.752;2022-12-13T05:20:26;-2.40;84.60
25871;DHT22;13689;48.590;7.752;2022-12-13T05:22:54;-2.50;84.70
25871;DHT22;13689;48.590;7.752;2022-12-13T05:25:20;-2.50;84.80
25871;DHT22;13689;48.590;7.752;2022-12-13T05:27:45;-2.50;84.80
25871;DHT22;13689;48.590;7.752;2022-12-13T05:30:11;-2.50;84.70
25871;DHT22;13689;48.590;7.752;2022-12-13T05:32:36;-2.60;84.80
25871;DHT22;13689;48.590;7.752;2022-12-13T05:35:05;-2.60;84.90
25871;DHT22;13689;48.590;7.752;2022-12-13T05:37:30;-2.60;85.10
25871;DHT22;13689;48.590;7.752;2022-12-13T05:39:56;-2.60;85.30
25871;DHT22;13689;48.590;7.752;2022-12-13T05:42:21;-2.60;85.10
25871;DHT22;13689;48.590;7.752;2022-12-13T05:44:47;-2.60;85.10
25871;DHT22;13689;48.590;7.752;2022-12-13T05:47:12;-2.50;85.10
25871;DHT22;13689;48.590;7.752;2022-12-13T05:49:38;-2.60;84.60
25871;DHT22;13689;48.590;7.752;2022-12-13T05:52:03;-2.60;84.70
25871;DHT22;13689;48.590;7.752;2022-12-13T05:54:29;-2.70;84.70
25871;DHT22;13689;48.590;7.752;2022-12-13T05:56:54;-2.80;84.70
25871;DHT22;13689;48.590;7.752;2022-12-13T05:59:20;-2.90;84.80
25871;DHT22;13689;48.590;7.752;2022-12-13T06:01:45;-2.90;85.30
25871;DHT22;13689;48.590;7.752;2022-12-13T06:04:11;-2.90;85.80
25871;DHT22;13689;48.590;7.752;2022-12-13T06:06:37;-2.90;85.80
25871;DHT22;13689;48.590;7.752;2022-12-13T06:09:02;-2.90;85.60
25871;DHT22;13689;48.590;7.752;2022-12-13T06:11:28;-2.90;85.90
25871;DHT22;13689;48.590;7.752;2022-12-13T06:13:54;-2.90;85.50
25871;DHT22;13689;48.590;7.752;2022-12-13T06:16:19;-3.00;85.50
25871;DHT22;13689;48.590;7.752;2022-12-13T06:18:45;-3.00;86.00
25871;DHT22;13689;48.590;7.752;2022-12-13T06:21:10;-3.00;86.10
25871;DHT22;13689;48.590;7.752;2022-12-13T06:23:36;-3.00;86.00
25871;DHT22;13689;48.590;7.752;2022-12-13T06:26:02;-3.00;85.90
25871;DHT22;13689;48.590;7.752;2022-12-13T06:28:28;-3.00;86.00
25871;DHT22;13689;48.590;7.752;2022-12-13T06:30:54;-3.00;86.30
25871;DHT22;13689;48.590;7.752;2022-12-13T06:33:19;-2.90;86.30
25871;DHT22;13689;48.590;7.752;2022-12-13T06:35:45;-2.90;86.20
25871;DHT22;13689;48.590;7.752;2022-12-13T06:38:11;-2.90;85.90
25871;DHT22;13689;48.590;7.752;2022-12-13T06:40:38;-2.90;86.00
25871;DHT22;13689;48.590;7.752;2022-12-13T06:43:03;-2.90;86.00
25871;DHT22;13689;48.590;7.752;2022-12-13T06:45:29;-2.90;86.10
25871;DHT22;13689;48.590;7.752;2022-12-13T06:47:55;-2.80;86.30
25871;DHT22;13689;48.590;7.752;2022-12-13T06:50:21;-2.80;86.20
25871;DHT22;13689;48.590;7.752;2022-12-13T06:52:46;-2.80;86.20
25871;DHT22;13689;48.590;7.752;2022-12-13T06:55:12;-2.70;86.10
25871;DHT22;13689;48.590;7.752;2022-12-13T06:57:37;-2.70;86.00
25871;DHT22;13689;48.590;7.752;2022-12-13T07:00:03;-2.70;85.80
25871;DHT22;13689;48.590;7.752;2022-12-13T07:02:29;-2.80;85.90
25871;DHT22;13689;48.590;7.752;2022-12-13T07:04:55;-2.70;86.10
25871;DHT22;13689;48.590;7.752;2022-12-13T07:07:20;-2.70;86.10
25871;DHT22;13689;48.590;7.752;2022-12-13T07:09:46;-2.70;86.20
25871;DHT22;13689;48.590;7.752;2022-12-13T07:12:11;-2.70;86.10
25871;DHT22;13689;48.590;7.752;2022-12-13T07:14:37;-2.60;86.00
25871;DHT22;13689;48.590;7.752;2022-12-13T07:17:02;-2.70;85.90
25871;DHT22;13689;48.590;7.752;2022-12-13T07:19:29;-2.70;85.70
25871;DHT22;13689;48.590;7.752;2022-12-13T07:21:54;-2.80;86.00
25871;DHT22;13689;48.590;7.752;2022-12-13T07:24:20;-2.80;85.90
25871;DHT22;13689;48.590;7.752;2022-12-13T07:26:46;-2.80;86.00
25871;DHT22;13689;48.590;7.752;2022-12-13T07:29:11;-2.80;86.30
25871;DHT22;13689;48.590;7.752;2022-12-13T07:31:37;-2.70;86.50
25871;DHT22;13689;48.590;7.752;2022-12-13T07:34:02;-2.60;86.50
25871;DHT22;13689;48.590;7.752;2022-12-13T07:36:28;-2.50;86.20
25871;DHT22;13689;48.590;7.752;2022-12-13T07:38:54;-2.50;86.10
25871;DHT22;13689;48.590;7.752;2022-12-13T07:41:21;-2.50;85.90
25871;DHT22;13689;48.590;7.752;2022-12-13T07:43:47;-2.50;85.80
25871;DHT22;13689;48.590;7.752;2022-12-13T07:46:12;-2.50;85.80
25871;DHT22;13689;48.590;7.752;2022-12-13T07:48:38;-2.50;85.80
25871;DHT22;13689;48.590;7.752;2022-12-13T07:51:05;-2.40;85.90
25871;DHT22;13689;48.590;7.752;2022-12-13T07:53:31;-2.40;85.90
25871;DHT22;13689;48.590;7.752;2022-12-13T07:55:59;-2.30;86.00
25871;DHT22;13689;48.590;7.752;2022-12-13T07:58:25;-2.40;85.70
25871;DHT22;13689;48.590;7.752;2022-12-13T08:00:50;-2.40;85.70
25871;DHT22;13689;48.590;7.752;2022-12-13T08:03:16;-2.30;85.70
25871;DHT22;13689;48.590;7.752;2022-12-13T08:05:41;-2.40;85.50
25871;DHT22;13689;48.590;7.752;2022-12-13T08:08:08;-2.40;85.80
25871;DHT22;13689;48.590;7.752;2022-12-13T08:10:34;-2.40;85.90
25871;DHT22;13689;48.590;7.752;2022-12-13T08:13:02;-2.30;86.00
25871;DHT22;13689;48.590;7.752;2022-12-13T08:15:28;-2.30;85.80
25871;DHT22;13689;48.590;7.752;2022-12-13T08:17:54;-2.30;85.70
25871;DHT22;13689;48.590;7.752;2022-12-13T08:20:20;-2.30;85.60
25871;DHT22;13689;48.590;7.752;2022-12-13T08:22:45;-2.30;85.70
25871;DHT22;13689;48.590;7.752;2022-12-13T08:25:18;-2.30;85.60
25871;DHT22;13689;48.590;7.752;2022-12-13T08:27:43;-2.20;85.50
25871;DHT22;13689;48.590;7.752;2022-12-13T08:30:12;-2.20;85.80
25871;DHT22;13689;48.590;7.752;2022-12-13T08:32:37;-2.10;86.00
25871;DHT22;13689;48.590;7.752;2022-12-13T08:35:03;-2.00;86.10
25871;DHT22;13689;48.590;7.752;2022-12-13T08:37:28;-2.10;85.40
25871;DHT22;13689;48.590;7.752;2022-12-13T08:39:54;-2.10;85.40
25871;DHT22;13689;48.590;7.752;2022-12-13T08:42:19;-2.00;85.50
25871;DHT22;13689;48.590;7.752;2022-12-13T08:44:48;-2.10;85.30
25871;DHT22;13689;48.590;7.752;2022-12-13T08:47:14;-2.10;85.10
25871;DHT22;13689;48.590;7.752;2022-12-13T08:49:40;-2.20;85.10
25871;DHT22;13689;48.590;7.752;2022-12-13T08:52:06;-2.20;85.40
25871;DHT22;13689;48.590;7.752;2022-12-13T08:54:32;-2.20;85.40
25871;DHT22;13689;48.590;7.752;2022-12-13T08:56:58;-2.20;85.40
25871;DHT22;13689;48.590;7.752;2022-12-13T08:59:23;-2.10;85.60
25871;DHT22;13689;48.590;7.752;2022-12-13T09:01:50;-2.10;85.30
25871;DHT22;13689;48.590;7.752;2022-12-13T09:04:15;-2.00;85.50
25871;DHT22;13689;48.590;7.752;2022-12-13T09:06:41;-1.90;85.40
25871;DHT22;13689;48.590;7.752;2022-12-13T09:09:07;-1.90;85.00
25871;DHT22;13689;48.590;7.752;2022-12-13T09:11:33;-1.90;85.00
25871;DHT22;13689;48.590;7.752;2022-12-13T09:13:58;-2.00;84.90
25871;DHT22;13689;48.590;7.752;2022-12-13T09:16:24;-1.90;85.00
25871;DHT22;13689;48.590;7.752;2022-12-13T09:18:50;-2.00;84.80
25871;DHT22;13689;48.590;7.752;2022-12-13T09:21:16;-1.90;85.00
25871;DHT22;13689;48.590;7.752;2022-12-13T09:23:42;-1.80;85.00
25871;DHT22;13689;48.590;7.752;2022-12-13T09:26:11;-1.80;84.60
25871;DHT22;13689;48.590;7.752;2022-12-13T09:28:38;-1.80;84.80
25871;DHT22;13689;48.590;7.752;2022-12-13T09:31:08;-1.70;84.40
25871;DHT22;13689;48.590;7.752;2022-12-13T09:33:33;-1.70;84.60
25871;DHT22;13689;48.590;7.752;2022-12-13T09:36:01;-1.50;84.90
25871;DHT22;13689;48.590;7.752;2022-12-13T09:38:27;-1.20;84.90
25871;DHT22;13689;48.590;7.752;2022-12-13T09:40:52;-1.10;84.10
25871;DHT22;13689;48.590;7.752;2022-12-13T09:43:21;-1.00;83.80
25871;DHT22;13689;48.590;7.752;2022-12-13T09:45:48;-1.00;83.90
25871;DHT22;13689;48.590;7.752;2022-12-13T09:48:18;-1.00;83.10
25871;DHT22;13689;48.590;7.752;2022-12-13T09:50:45;-1.10;83.40
25871;DHT22;13689;48.590;7.752;2022-12-13T09:53:12;-0.90;83.50
25871;DHT22;13689;48.590;7.752;2022-12-13T09:55:38;-0.90;83.70
25871;DHT22;13689;48.590;7.752;2022-12-13T09:58:10;-0.90;83.30
25871;DHT22;13689;48.590;7.752;2022-12-13T10:00:36;-0.90;83.00
25871;DHT22;13689;48.590;7.752;2022-12-13T10:03:02;-1.00;82.80
25871;DHT22;13689;48.590;7.752;2022-12-13T10:05:29;-0.80;83.10
25871;DHT22;13689;48.590;7.752;2022-12-13T10:07:59;-0.80;82.90
25871;DHT22;13689;48.590;7.752;2022-12-13T10:10:25;-0.80;82.50
25871;DHT22;13689;48.590;7.752;2022-12-13T10:12:53;-0.80;82.60
25871;DHT22;13689;48.590;7.752;2022-12-13T10:15:20;-0.80;82.50
25871;DHT22;13689;48.590;7.752;2022-12-13T10:17:46;-0.70;82.40
25871;DHT22;13689;48.590;7.752;2022-12-13T10:20:19;-0.60;82.60
25871;DHT22;13689;48.590;7.752;2022-12-13T10:22:45;-0.70;82.20
25871;DHT22;13689;48.590;7.752;2022-12-13T10:25:11;-0.70;82.30
25871;DHT22;13689;48.590;7.752;2022-12-13T10:27:37;-0.70;82.40
25871;DHT22;13689;48.590;7.752;2022-12-13T10:30:06;-0.60;82.40
25871;DHT22;13689;48.590;7.752;2022-12-13T10:32:42;-0.60;82.50
25871;DHT22;13689;48.590;7.752;2022-12-13T10:35:18;-0.60;82.10
25871;DHT22;13689;48.590;7.752;2022-12-13T10:37:45;-0.60;82.10
25871;DHT22;13689;48.590;7.752;2022-12-13T10:43:04;-0.70;81.80
25871;DHT22;13689;48.590;7.752;2022-12-13T10:45:30;-0.80;82.10
25871;DHT22;13689;48.590;7.752;2022-12-13T10:47:55;-0.70;82.20
25871;DHT22;13689;48.590;7.752;2022-12-13T10:50:22;-0.60;82.30
25871;DHT22;13689;48.590;7.752;2022-12-13T10:52:48;-0.60;82.00
25871;DHT22;13689;48.590;7.752;2022-12-13T10:55:25;-0.60;82.10
25871;DHT22;13689;48.590;7.752;2022-12-13T10:57:52;-0.50;82.60
25871;DHT22;13689;48.590;7.752;2022-12-13T11:02:58;-0.30;81.80
25871;DHT22;13689;48.590;7.752;2022-12-13T11:05:28;-0.30;81.90
25871;DHT22;13689;48.590;7.752;2022-12-13T11:07:54;-0.30;82.00
25871;DHT22;13689;48.590;7.752;2022-12-13T11:12:46;-0.10;81.90
25871;DHT22;13689;48.590;7.752;2022-12-13T11:15:22;-0.20;81.70
25871;DHT22;13689;48.590;7.752;2022-12-13T11:17:55;-0.20;81.50
25871;DHT22;13689;48.590;7.752;2022-12-13T11:20:29;-0.30;81.30
25871;DHT22;13689;48.590;7.752;2022-12-13T11:25:34;-0.40;81.30
25871;DHT22;13689;48.590;7.752;2022-12-13T11:40:46;-0.40;81.20
25871;DHT22;13689;48.590;7.752;2022-12-13T11:45:50;-0.40;81.20
25871;DHT22;13689;48.590;7.752;2022-12-13T11:48:35;-0.40;81.10
25871;DHT22;13689;48.590;7.752;2022-12-13T11:51:04;-0.40;81.20
25871;DHT22;13689;48.590;7.752;2022-12-13T11:58:24;-0.20;81.40
25871;DHT22;13689;48.590;7.752;2022-12-13T12:00:56;-0.10;81.30
25871;DHT22;13689;48.590;7.752;2022-12-13T12:06:03;-0.20;80.70
25871;DHT22;13689;48.590;7.752;2022-12-13T12:08:44;-0.10;80.70
25871;DHT22;13689;48.590;7.752;2022-12-13T12:13:57;-0.10;80.70
25871;DHT22;13689;48.590;7.752;2022-12-13T12:18:53;-0.20;80.90
25871;DHT22;13689;48.590;7.752;2022-12-13T12:21:31;-0.10;80.20
25871;DHT22;13689;48.590;7.752;2022-12-13T12:26:31;-0.10;79.70
25871;DHT22;13689;48.590;7.752;2022-12-13T12:41:44;0.00;78.60
25871;DHT22;13689;48.590;7.752;2022-12-13T12:47:16;0.00;78.50
25871;DHT22;13689;48.590;7.752;2022-12-13T12:54:50;0.20;78.70
25871;DHT22;13689;48.590;7.752;2022-12-13T13:00:14;0.20;78.00
25871;DHT22;13689;48.590;7.752;2022-12-13T13:07:52;0.30;78.00
25871;DHT22;13689;48.590;7.752;2022-12-13T13:10:19;0.30;77.90
25871;DHT22;13689;48.590;7.752;2022-12-13T13:12:45;0.30;78.00
25871;DHT22;13689;48.590;7.752;2022-12-13T13:15:56;0.40;78.10
25871;DHT22;13689;48.590;7.752;2022-12-13T13:18:00;0.40;77.90
25871;DHT22;13689;48.590;7.752;2022-12-13T13:20:27;0.40;77.90
25871;DHT22;13689;48.590;7.752;2022-12-13T13:22:53;0.30;77.30
25871;DHT22;13689;48.590;7.752;2022-12-13T13:27:45;0.20;77.20
25871;DHT22;13689;48.590;7.752;2022-12-13T13:32:40;0.10;77.10
25871;DHT22;13689;48.590;7.752;2022-12-13T13:37:50;0.10;77.20
25871;DHT22;13689;48.590;7.752;2022-12-13T13:40:35;0.10;77.20
25871;DHT22;13689;48.590;7.752;2022-12-13T13:45:29;0.20;77.00
25871;DHT22;13689;48.590;7.752;2022-12-13T13:48:41;0.10;76.60
25871;DHT22;13689;48.590;7.752;2022-12-13T13:58:34;-0.10;76.60
25871;DHT22;13689;48.590;7.752;2022-12-13T14:08:39;-0.10;76.60
25871;DHT22;13689;48.590;7.752;2022-12-13T14:19:09;-0.20;77.00
25871;DHT22;13689;48.590;7.752;2022-12-13T14:22:23;-0.20;77.10
25871;DHT22;13689;48.590;7.752;2022-12-13T14:29:25;-0.20;77.20
25871;DHT22;13689;48.590;7.752;2022-12-13T14:31:51;-0.20;77.30
25871;DHT22;13689;48.590;7.752;2022-12-13T14:34:20;-0.20;77.30
25871;DHT22;13689;48.590;7.752;2022-12-13T14:36:52;-0.10;77.50
25871;DHT22;13689;48.590;7.752;2022-12-13T14:39:18;-0.10;77.40
25871;DHT22;13689;48.590;7.752;2022-12-13T14:41:48;-0.10;77.40
25871;DHT22;13689;48.590;7.752;2022-12-13T14:44:15;-0.10;77.40
25871;DHT22;13689;48.590;7.752;2022-12-13T14:46:51;-0.20;77.30
25871;DHT22;13689;48.590;7.752;2022-12-13T14:49:18;-0.20;77.30
25871;DHT22;13689;48.590;7.752;2022-12-13T14:51:43;-0.20;77.40
25871;DHT22;13689;48.590;7.752;2022-12-13T14:54:16;-0.30;77.40
25871;DHT22;13689;48.590;7.752;2022-12-13T14:56:53;-0.30;77.50
25871;DHT22;13689;48.590;7.752;2022-12-13T14:59:19;-0.30;77.60
25871;DHT22;13689;48.590;7.752;2022-12-13T15:01:45;-0.30;77.60
25871;DHT22;13689;48.590;7.752;2022-12-13T15:06:46;-0.30;77.80
25871;DHT22;13689;48.590;7.752;2022-12-13T15:09:12;-0.30;77.90
25871;DHT22;13689;48.590;7.752;2022-12-13T15:11:39;-0.30;77.90
25871;DHT22;13689;48.590;7.752;2022-12-13T15:14:05;-0.30;78.00
25871;DHT22;13689;48.590;7.752;2022-12-13T15:16:30;-0.30;77.80
25871;DHT22;13689;48.590;7.752;2022-12-13T15:19:18;-0.30;77.80
25871;DHT22;13689;48.590;7.752;2022-12-13T15:21:54;-0.30;77.90
25871;DHT22;13689;48.590;7.752;2022-12-13T15:24:21;-0.30;77.90
25871;DHT22;13689;48.590;7.752;2022-12-13T15:26:47;-0.30;77.80
25871;DHT22;13689;48.590;7.752;2022-12-13T15:29:13;-0.30;77.80
25871;DHT22;13689;48.590;7.752;2022-12-13T15:31:41;-0.30;77.90
25871;DHT22;13689;48.590;7.752;2022-12-13T15:34:28;-0.20;78.00
25871;DHT22;13689;48.590;7.752;2022-12-13T15:36:56;-0.30;77.90
25871;DHT22;13689;48.590;7.752;2022-12-13T15:39:25;-0.30;78.70
25871;DHT22;13689;48.590;7.752;2022-12-13T15:41:52;-0.30;78.00
25871;DHT22;13689;48.590;7.752;2022-12-13T15:44:22;-0.30;78.00
25871;DHT22;13689;48.590;7.752;2022-12-13T15:46:51;-0.30;78.00
25871;DHT22;13689;48.590;7.752;2022-12-13T15:52:03;-0.30;78.00
25871;DHT22;13689;48.590;7.752;2022-12-13T15:54:29;-0.30;78.10
25871;DHT22;13689;48.590;7.752;2022-12-13T15:57:10;-0.30;78.30
25871;DHT22;13689;48.590;7.752;2022-12-13T15:59:39;-0.30;78.10
25871;DHT22;13689;48.590;7.752;2022-12-13T16:02:38;-0.30;78.30
25871;DHT22;13689;48.590;7.752;2022-12-13T16:05:04;-0.30;78.20
25871;DHT22;13689;48.590;7.752;2022-12-13T16:07:33;-0.30;78.20
25871;DHT22;13689;48.590;7.752;2022-12-13T16:10:04;-0.30;78.30
25871;DHT22;13689;48.590;7.752;2022-12-13T16:12:41;-0.20;78.30
25871;DHT22;13689;48.590;7.752;2022-12-13T16:15:12;-0.20;78.20
25871;DHT22;13689;48.590;7.752;2022-12-13T16:17:39;-0.20;78.40
25871;DHT22;13689;48.590;7.752;2022-12-13T16:20:07;-0.20;78.10
25871;DHT22;13689;48.590;7.752;2022-12-13T16:22:34;-0.20;78.10
25871;DHT22;13689;48.590;7.752;2022-12-13T16:25:00;-0.20;78.10
25871;DHT22;13689;48.590;7.752;2022-12-13T16:27:26;-0.30;78.20
25871;DHT22;13689;48.590;7.752;2022-12-13T16:29:51;-0.30;78.40
25871;DHT22;13689;48.590;7.752;2022-12-13T16:32:17;-0.30;78.60
25871;DHT22;13689;48.590;7.752;2022-12-13T16:34:42;-0.30;78.60
25871;DHT22;13689;48.590;7.752;2022-12-13T16:37:08;-0.30;78.60
25871;DHT22;13689;48.590;7.752;2022-12-13T16:39:33;-0.30;78.70
25871;DHT22;13689;48.590;7.752;2022-12-13T16:41:59;-0.30;78.80
25871;DHT22;13689;48.590;7.752;2022-12-13T16:44:37;-0.20;78.70
25871;DHT22;13689;48.590;7.752;2022-12-13T16:47:08;-0.20;78.50
25871;DHT22;13689;48.590;7.752;2022-12-13T16:49:36;-0.30;78.40
25871;DHT22;13689;48.590;7.752;2022-12-13T16:52:02;-0.30;78.50
25871;DHT22;13689;48.590;7.752;2022-12-13T16:54:30;-0.30;78.60
25871;DHT22;13689;48.590;7.752;2022-12-13T16:56:55;-0.30;78.60
25871;DHT22;13689;48.590;7.752;2022-12-13T16:59:23;-0.30;78.60
25871;DHT22;13689;48.590;7.752;2022-12-13T17:01:49;-0.30;78.80
25871;DHT22;13689;48.590;7.752;2022-12-13T17:04:16;-0.30;78.80
25871;DHT22;13689;48.590;7.752;2022-12-13T17:06:43;-0.30;78.80
25871;DHT22;13689;48.590;7.752;2022-12-13T17:09:08;-0.30;78.80
25871;DHT22;13689;48.590;7.752;2022-12-13T17:11:34;-0.30;78.70
25871;DHT22;13689;48.590;7.752;2022-12-13T17:14:01;-0.30;78.80
25871;DHT22;13689;48.590;7.752;2022-12-13T17:16:26;-0.40;78.80
25871;DHT22;13689;48.590;7.752;2022-12-13T17:18:52;-0.40;78.90
25871;DHT22;13689;48.590;7.752;2022-12-13T17:21:20;-0.40;79.10
25871;DHT22;13689;48.590;7.752;2022-12-13T17:23:48;-0.40;79.10
25871;DHT22;13689;48.590;7.752;2022-12-13T17:26:13;-0.30;79.20
25871;DHT22;13689;48.590;7.752;2022-12-13T17:28:39;-0.30;79.20
25871;DHT22;13689;48.590;7.752;2022-12-13T17:31:11;-0.30;79.10
25871;DHT22;13689;48.590;7.752;2022-12-13T17:33:38;-0.30;79.30
25871;DHT22;13689;48.590;7.752;2022-12-13T17:36:03;-0.30;79.30
25871;DHT22;13689;48.590;7.752;2022-12-13T17:38:29;-0.30;79.00
25871;DHT22;13689;48.590;7.752;2022-12-13T17:41:18;-0.30;79.10
25871;DHT22;13689;48.590;7.752;2022-12-13T17:44:07;-0.30;79.20
25871;DHT22;13689;48.590;7.752;2022-12-13T17:46:33;-0.30;79.20
25871;DHT22;13689;48.590;7.752;2022-12-13T17:48:58;-0.30;79.20
25871;DHT22;13689;48.590;7.752;2022-12-13T17:51:24;-0.40;79.30
25871;DHT22;13689;48.590;7.752;2022-12-13T17:53:49;-0.30;79.40